createdAt,value
2022-08-26T00:01:24.335Z,5.57
2022-08-26T00:04:34.824Z,6.85
2022-08-26T00:07:40.311Z,6.18
2022-08-26T00:10:49.545Z,6.80
2022-08-26T00:13:56.009Z,7.38
2022-08-26T00:17:02.246Z,5.93
2022-08-26T00:20:10.282Z,7.63
2022-08-26T00:23:17.008Z,7.75
2022-08-26T00:26:23.083Z,8.80
2022-08-26T00:29:37.457Z,7.82
2022-08-26T00:32:44.066Z,7.82
2022-08-26T00:35:52.421Z,7.28
2022-08-26T00:38:58.906Z,6.60
2022-08-26T00:42:05.099Z,6.32
2022-08-26T00:45:12.704Z,6.00
2022-08-26T00:48:23.203Z,6.72
2022-08-26T00:54:45.657Z,7.53
2022-08-26T00:57:52.592Z,7.63
2022-08-26T01:00:58.319Z,6.22
2022-08-26T01:04:04.631Z,6.47
2022-08-26T01:07:11.076Z,6.47
2022-08-26T01:10:21.559Z,6.47
2022-08-26T01:13:28.431Z,6.85
2022-08-26T01:16:35.998Z,6.03
2022-08-26T01:19:45.294Z,7.50
2022-08-26T01:22:58.368Z,7.72
2022-08-26T01:26:19.711Z,9.75
2022-08-26T01:29:26.651Z,7.35
2022-08-26T01:32:33.905Z,7.10
2022-08-26T01:35:39.748Z,6.68
2022-08-26T01:38:45.795Z,6.88
2022-08-26T01:41:56.356Z,6.63
2022-08-26T01:45:09.489Z,6.53
2022-08-26T01:48:20.167Z,6.97
2022-08-26T01:54:33.541Z,7.00
2022-08-26T01:57:40.662Z,7.93
2022-08-26T02:00:50.443Z,7.55
2022-08-26T02:04:04.067Z,8.23
2022-08-26T02:07:10.620Z,8.05
2022-08-26T02:10:17.157Z,8.80
2022-08-26T02:13:30.474Z,8.45
2022-08-26T02:16:42.383Z,8.57
2022-08-26T02:19:50.777Z,9.13
2022-08-26T02:22:56.492Z,8.73
2022-08-26T02:26:19.356Z,8.95
2022-08-26T02:29:37.789Z,10.50
2022-08-26T02:32:44.052Z,8.63
2022-08-26T02:35:49.958Z,9.13
2022-08-26T02:38:56.538Z,9.27
2022-08-26T02:42:03.009Z,9.50
2022-08-26T02:45:09.715Z,9.20
2022-08-26T02:48:18.813Z,9.25
2022-08-26T02:51:24.890Z,10.07
2022-08-26T02:54:30.521Z,10.43
2022-08-26T02:57:36.554Z,9.90
2022-08-26T03:00:53.077Z,10.35
2022-08-26T03:04:01.556Z,10.05
2022-08-26T03:07:08.137Z,10.20
2022-08-26T03:10:14.826Z,10.95
2022-08-26T03:13:20.116Z,11.18
2022-08-26T03:16:25.571Z,10.07
2022-08-26T03:19:38.752Z,9.98
2022-08-26T03:22:47.660Z,11.18
2022-08-26T03:25:55.139Z,10.95
2022-08-26T03:29:20.378Z,10.50
2022-08-26T03:32:26.986Z,11.90
2022-08-26T03:35:35.431Z,10.48
2022-08-26T03:38:41.544Z,9.90
2022-08-26T03:41:49.225Z,10.63
2022-08-26T03:48:04.567Z,12.77
2022-08-26T03:51:19.426Z,12.35
2022-08-26T03:54:25.306Z,11.93
2022-08-26T03:57:31.886Z,11.25
2022-08-26T04:00:37.520Z,11.43
2022-08-26T04:04:00.417Z,12.65
2022-08-26T04:07:06.290Z,10.82
2022-08-26T04:10:14.877Z,11.38
2022-08-26T04:13:25.493Z,12.05
2022-08-26T04:16:33.141Z,11.10
2022-08-26T04:19:39.157Z,12.02
2022-08-26T04:22:45.914Z,12.23
2022-08-26T04:25:51.970Z,11.50
2022-08-26T04:28:57.852Z,11.93
2022-08-26T04:32:05.233Z,12.02
2022-08-26T04:35:11.749Z,11.82
2022-08-26T04:38:19.851Z,13.48
2022-08-26T04:41:26.077Z,13.32
2022-08-26T04:44:38.007Z,14.10
2022-08-26T04:47:45.188Z,13.95
2022-08-26T04:50:51.691Z,13.73
2022-08-26T04:53:59.376Z,14.55
2022-08-26T04:57:05.515Z,13.63
2022-08-26T05:00:13.734Z,13.85
2022-08-26T05:03:21.301Z,13.32
2022-08-26T05:06:27.463Z,13.60
2022-08-26T05:09:33.246Z,12.20
2022-08-26T05:12:38.897Z,12.85
2022-08-26T05:15:47.244Z,13.88
2022-08-26T05:18:55.135Z,12.73
2022-08-26T05:22:00.611Z,13.27
2022-08-26T05:25:07.138Z,12.50
2022-08-26T05:28:15.614Z,13.98
2022-08-26T05:31:24.924Z,14.30
2022-08-26T05:34:31.377Z,13.27
2022-08-26T05:37:39.183Z,14.25
2022-08-26T05:40:49.377Z,13.10
2022-08-26T05:44:00.840Z,10.50
2022-08-26T05:47:07.869Z,10.40
2022-08-26T05:50:14.972Z,10.73
2022-08-26T05:53:22.454Z,11.80
2022-08-26T05:56:30.292Z,10.02
2022-08-26T05:59:36.053Z,10.27
2022-08-26T06:02:44.679Z,10.10
2022-08-26T06:05:54.338Z,9.90
2022-08-26T06:09:02.358Z,9.93
2022-08-26T06:12:08.196Z,9.55
2022-08-26T06:15:13.927Z,10.07
2022-08-26T06:18:25.069Z,9.35
2022-08-26T06:21:34.774Z,8.50
2022-08-26T06:24:58.737Z,7.45
2022-08-26T06:28:05.521Z,7.85
2022-08-26T06:31:11.007Z,6.82
2022-08-26T06:34:17.079Z,7.05
2022-08-26T06:37:22.848Z,8.63
2022-08-26T06:40:29.870Z,8.27
2022-08-26T06:43:35.567Z,9.52
2022-08-26T06:46:42.924Z,7.95
2022-08-26T06:49:51.094Z,7.60
2022-08-26T06:52:57.137Z,7.90
2022-08-26T06:56:07.874Z,6.95
2022-08-26T06:59:16.552Z,6.65
2022-08-26T07:02:23.761Z,6.03
2022-08-26T07:05:36.070Z,5.68
2022-08-26T07:08:41.916Z,6.50
2022-08-26T07:11:48.639Z,7.25
2022-08-26T07:14:55.242Z,7.38
2022-08-26T07:18:03.453Z,7.28
2022-08-26T07:21:12.595Z,8.43
2022-08-26T07:24:18.230Z,9.65
2022-08-26T07:27:23.886Z,10.48
2022-08-26T07:30:29.646Z,11.07
2022-08-26T07:33:37.167Z,9.93
2022-08-26T07:36:42.459Z,9.00
2022-08-26T07:39:48.130Z,8.48
2022-08-26T07:42:54.855Z,7.65
2022-08-26T07:46:00.855Z,6.80
2022-08-26T07:49:06.387Z,6.85
2022-08-26T07:52:12.912Z,7.68
2022-08-26T07:55:18.407Z,8.25
2022-08-26T07:58:23.894Z,7.97
2022-08-26T08:01:33.099Z,7.40
2022-08-26T08:04:38.926Z,7.80
2022-08-26T08:07:45.594Z,9.82
2022-08-26T08:10:52.271Z,6.82
2022-08-26T08:13:58.403Z,5.40
2022-08-26T08:17:04.803Z,5.70
2022-08-26T08:20:12.930Z,6.90
2022-08-26T08:23:18.610Z,6.28
2022-08-26T08:26:26.582Z,5.47
2022-08-26T08:29:31.988Z,5.78
2022-08-26T08:32:39.250Z,5.82
2022-08-26T08:35:46.523Z,6.05
2022-08-26T08:38:52.436Z,6.80
2022-08-26T08:42:29.734Z,5.95
2022-08-26T08:45:39.825Z,5.15
2022-08-26T08:48:50.233Z,6.22
2022-08-26T08:55:18.110Z,6.03
2022-08-26T08:58:36.122Z,5.43
2022-08-26T09:02:01.369Z,5.93
2022-08-26T09:05:17.154Z,6.57
2022-08-26T09:08:29.719Z,7.28
2022-08-26T09:11:36.160Z,7.15
2022-08-26T09:14:41.785Z,7.15
2022-08-26T09:18:21.701Z,6.68
2022-08-26T09:21:27.458Z,6.43
2022-08-26T09:24:41.862Z,6.03
2022-08-26T09:27:54.637Z,6.60
2022-08-26T09:31:25.690Z,7.00
2022-08-26T09:34:32.425Z,6.63
2022-08-26T09:41:05.161Z,5.90
2022-08-26T09:44:14.757Z,6.20
2022-08-26T09:47:39.764Z,6.13
2022-08-26T09:51:02.003Z,5.95
2022-08-26T09:54:08.317Z,6.18
2022-08-26T09:57:25.442Z,6.55
2022-08-26T10:00:39.345Z,6.43
2022-08-26T10:03:47.074Z,6.03
2022-08-26T10:07:05.316Z,6.32
2022-08-26T10:10:40.193Z,6.50
2022-08-26T10:13:57.228Z,6.10
2022-08-26T10:17:20.440Z,6.35
2022-08-26T10:20:31.586Z,5.97
2022-08-26T10:23:50.520Z,6.18
2022-08-26T10:27:23.249Z,6.03
2022-08-26T10:30:40.665Z,6.65
2022-08-26T10:33:48.860Z,5.78
2022-08-26T10:37:13.604Z,7.68
2022-08-26T10:40:26.275Z,7.35
2022-08-26T10:43:48.161Z,7.15
2022-08-26T10:47:02.000Z,6.35
2022-08-26T10:50:08.539Z,6.38
2022-08-26T10:53:25.142Z,5.45
2022-08-26T10:56:48.714Z,6.88
2022-08-26T11:00:29.464Z,5.93
2022-08-26T11:04:11.577Z,6.18
2022-08-26T11:14:09.265Z,5.28
2022-08-26T11:17:46.658Z,5.93
2022-08-26T11:20:51.939Z,6.22
2022-08-26T11:23:57.467Z,5.57
2022-08-26T11:27:03.380Z,5.35
2022-08-26T11:30:37.497Z,5.97
2022-08-26T11:33:52.332Z,6.28
2022-08-26T11:37:01.867Z,5.72
2022-08-26T11:40:15.023Z,5.78
2022-08-26T11:43:26.398Z,5.07
2022-08-26T11:46:37.943Z,5.28
2022-08-26T11:49:45.504Z,5.88
2022-08-26T11:52:57.379Z,5.40
2022-08-26T11:56:10.056Z,5.70
2022-08-26T11:59:28.048Z,5.55
